Share

Alor Star, Malaysia

10:11 PM MYT on April 24, 2014 (GMT +0800)
Sultan Abdul Halim (WMKA) Elev 16 ft | 6.19 °N, 100.40 °E | Change Station

Current weather conditions updated 11 minutes ago

Mostly Cloudy
Mostly Cloudy
82 °F
Feels Like 91 °F
N
5
Wind Variable Wind from East
Sunrise 7:07 AM
Sunset 7:25 PM
Moon Waning Crescent

Tomorrow is forecast to be nearly the same temperature as today. Afternoon thunderstorms.

Pressure 29.80 in
Visibility 6.2 miles
Clouds Few 3000 ft
Scattered Clouds 14000 ft
Mostly Cloudy 27000 ft
Heat Index 91 °F
Dew Point 77 °F
Humidity 84%
Rainfall 0.00 in
Snow Depth Not available.
UV 0 out of 16
Pollen Not available.
Air Quality Not available.
Flu Activity Not available.
METAR WMKA 241400Z 10004KT 9999 FEW030 SCT140 BKN270 28/25 Q1009

More Conditions Fewer Conditions

Pressure 29.80 in
Visibility 6.2 miles
Clouds Few 3000 ft
Scattered Clouds 14000 ft
Mostly Cloudy 27000 ft
Heat Index 91 °F
Dew Point 77 °F
Humidity 84%
Rainfall 0.00 in
Snow Depth Not available.
UV 0 out of 16
Pollen Not available.
Air Quality Not available.
Flu Activity Not available.
METAR WMKA 241400Z 10004KT 9999 FEW030 SCT140 BKN270 28/25 Q1009

More Conditions Fewer Conditions

10-Day Weather Forecast

Almanac

Astronomy

Apr. 24, 2014 Rise Set
Actual Time 7:07 AM MYT 7:25 PM MYT
Civil Twilight 6:46 AM MYT 7:47 PM MYT
Nautical Twilight 6:21 AM MYT 8:11 PM MYT
Astronomical Twilight 5:56 AM MYT 8:37 PM MYT
Moon 2:50 AM MYT 3:08 PM MYT
Length of Visible Light 13h 00m
Length of Day
12h 18m
Tomorrow will be 0m 19s longer.
Waning Crescent, 25% of the Moon is Illuminated
Today
Waning Crescent
Apr 29
New
May 6
First Quarter
May 14
Full
May 21
Last Quarter

Yesterday's Extremes

Country Highs Country Lows

Community

  • Clouds mov'n in
    Clouds mov'n in
  • Stacked
    Stacked
  • clouds approaching Red Sox Nation
    clouds approaching Red Sox Nation
  • Balance
    Balance
  • Citysky
    Citysky

WunderPhotos

Upload Photos

1,704,619 photos uploaded!

Nearby

Snow Depth

Not available.

Coastal Water Temperatures

Place Temperature
No Stations Reporting

Earthquake Activity

City Distance Mag. Time & Date
No recent earthquake activity has been reported nearby.
Minimum magnitude displayed is 2.5.

Nearby Weather Stations

There are no personal weather stations in this area.

What do you think?

We're not finished. Please let us know what you like, what you don't like, and what you are still missing.